createdAt,value
2018-12-02T00:01:51.339Z,9.23
2018-12-02T00:04:20.589Z,12.40
2018-12-02T00:06:49.319Z,11.18
2018-12-02T00:09:18.020Z,10.70
2018-12-02T00:11:46.764Z,10.63
2018-12-02T00:14:15.497Z,12.35
2018-12-02T00:16:44.345Z,10.08
2018-12-02T00:19:13.179Z,10.18
2018-12-02T00:21:42.206Z,11.33
2018-12-02T00:24:11.375Z,11.55
2018-12-02T00:26:40.058Z,11.55
2018-12-02T00:29:08.804Z,11.63
2018-12-02T00:31:37.553Z,10.10
2018-12-02T00:34:06.593Z,12.23
2018-12-02T00:36:35.385Z,10.00
2018-12-02T00:39:04.547Z,10.50
2018-12-02T00:41:34.121Z,10.20
2018-12-02T00:44:03.791Z,11.85
2018-12-02T00:46:32.534Z,10.08
2018-12-02T00:49:01.537Z,10.98
2018-12-02T00:51:30.322Z,9.48
2018-12-02T00:53:59.156Z,10.63
2018-12-02T00:56:30.654Z,7.65
2018-12-02T00:58:59.408Z,10.72
2018-12-02T01:01:28.228Z,11.57
2018-12-02T01:03:56.988Z,11.48
2018-12-02T01:06:25.793Z,10.50
2018-12-02T01:08:54.572Z,9.93
2018-12-02T01:11:23.272Z,8.18
2018-12-02T01:13:52.014Z,9.50
2018-12-02T01:16:20.721Z,10.08
2018-12-02T01:18:49.459Z,13.35
2018-12-02T01:21:18.291Z,8.88
2018-12-02T01:23:47.031Z,9.08
2018-12-02T01:26:15.836Z,10.30
2018-12-02T01:28:44.545Z,9.65
2018-12-02T01:31:13.360Z,8.55
2018-12-02T01:33:42.197Z,9.13
2018-12-02T01:36:10.993Z,9.70
2018-12-02T01:38:39.790Z,8.40
2018-12-02T01:41:08.462Z,9.05
2018-12-02T01:43:37.221Z,11.57
2018-12-02T01:46:06.014Z,7.55
2018-12-02T01:48:34.826Z,11.10
2018-12-02T01:51:03.533Z,9.55
2018-12-02T01:53:32.243Z,9.00
2018-12-02T01:56:00.946Z,9.98
2018-12-02T01:58:29.625Z,8.28
2018-12-02T02:00:58.378Z,8.08
2018-12-02T02:03:27.052Z,8.95
2018-12-02T02:05:55.800Z,8.43
2018-12-02T02:08:26.252Z,9.30
2018-12-02T02:10:55.011Z,8.43
2018-12-02T02:13:23.717Z,10.88
2018-12-02T02:15:52.494Z,6.97
2018-12-02T02:18:21.233Z,10.40
2018-12-02T02:20:50.051Z,9.08
2018-12-02T02:23:18.711Z,10.75
2018-12-02T02:25:47.451Z,8.30
2018-12-02T02:28:16.945Z,8.90
2018-12-02T02:30:45.666Z,8.30
2018-12-02T02:33:14.367Z,8.50
2018-12-02T02:35:43.543Z,7.72
2018-12-02T02:38:12.256Z,11.18
2018-12-02T02:40:40.910Z,8.40
2018-12-02T02:43:09.655Z,8.65
2018-12-02T02:45:38.438Z,8.25
2018-12-02T02:48:07.191Z,8.35
2018-12-02T02:50:35.883Z,9.68
2018-12-02T02:53:04.796Z,10.03
2018-12-02T02:55:33.508Z,10.32
2018-12-02T02:58:02.166Z,8.90
2018-12-02T03:00:30.950Z,9.98
2018-12-02T03:02:59.703Z,8.70
2018-12-02T03:05:28.480Z,8.28
2018-12-02T03:07:57.320Z,8.40
2018-12-02T03:10:26.045Z,9.45
2018-12-02T03:12:55.017Z,9.05
2018-12-02T03:15:24.231Z,8.38
2018-12-02T03:17:52.959Z,9.78
2018-12-02T03:20:23.175Z,11.12
2018-12-02T03:22:54.571Z,8.58
2018-12-02T03:25:24.354Z,8.83
2018-12-02T03:27:53.115Z,9.35
2018-12-02T03:30:22.736Z,9.78
2018-12-02T03:32:51.491Z,10.90
2018-12-02T03:35:25.040Z,12.10
2018-12-02T03:37:54.531Z,9.93
2018-12-02T03:40:25.202Z,8.90
2018-12-02T03:42:54.071Z,9.73
2018-12-02T03:45:29.409Z,8.45
2018-12-02T03:47:58.833Z,8.60
2018-12-02T03:50:27.533Z,8.55
2018-12-02T03:52:56.245Z,8.73
2018-12-02T03:55:24.946Z,9.18
2018-12-02T03:57:53.896Z,8.48
2018-12-02T04:00:25.844Z,8.30
2018-12-02T04:02:55.406Z,9.68
2018-12-02T04:05:25.145Z,11.12
2018-12-02T04:07:54.089Z,9.08
2018-12-02T04:10:23.128Z,7.97
2018-12-02T04:12:52.738Z,8.90
2018-12-02T04:15:23.452Z,9.15
2018-12-02T04:17:52.242Z,10.18
2018-12-02T04:20:21.303Z,9.68
2018-12-02T04:22:50.932Z,9.60
2018-12-02T04:25:22.984Z,9.75
2018-12-02T04:27:51.718Z,8.23
2018-12-02T04:30:20.979Z,7.90
2018-12-02T04:32:50.564Z,8.25
2018-12-02T04:35:18.660Z,9.43
2018-12-02T04:37:47.438Z,8.88
2018-12-02T04:40:15.075Z,8.30
2018-12-02T04:42:43.884Z,8.30
2018-12-02T04:45:19.954Z,7.22
2018-12-02T04:47:47.673Z,9.68
2018-12-02T04:50:18.142Z,8.15
2018-12-02T04:52:46.906Z,9.78
2018-12-02T04:55:15.690Z,8.20
2018-12-02T04:57:44.483Z,8.98
2018-12-02T05:00:15.074Z,7.17
2018-12-02T05:02:44.541Z,7.08
2018-12-02T05:05:14.512Z,8.40
2018-12-02T05:07:43.491Z,6.97
2018-12-02T05:10:13.184Z,9.63
2018-12-02T05:12:42.033Z,7.05
2018-12-02T05:15:14.885Z,9.75
2018-12-02T05:17:43.689Z,10.10
2018-12-02T05:20:13.506Z,8.08
2018-12-02T05:22:42.311Z,8.33
2018-12-02T05:25:17.638Z,7.37
2018-12-02T05:27:42.750Z,7.10
2018-12-02T05:30:18.169Z,8.78
2018-12-02T05:32:47.927Z,8.28
2018-12-02T05:35:16.697Z,7.08
2018-12-02T05:37:45.432Z,9.80
2018-12-02T05:40:15.958Z,6.30
2018-12-02T05:42:44.697Z,7.95
2018-12-02T05:45:15.764Z,7.65
2018-12-02T05:47:44.842Z,7.62
2018-12-02T05:50:16.622Z,8.98
2018-12-02T05:52:46.778Z,6.50
2018-12-02T05:55:16.869Z,6.92
2018-12-02T05:57:45.572Z,7.25
2018-12-02T06:00:18.183Z,8.23
2018-12-02T06:02:47.231Z,6.28
2018-12-02T06:05:15.965Z,7.22
2018-12-02T06:07:44.748Z,8.05
2018-12-02T06:10:15.574Z,6.42
2018-12-02T06:12:44.482Z,6.60
2018-12-02T06:15:14.314Z,8.25
2018-12-02T06:17:43.322Z,6.65
2018-12-02T06:20:13.368Z,6.80
2018-12-02T06:22:42.054Z,6.50
2018-12-02T06:25:11.195Z,7.17
2018-12-02T06:27:40.009Z,6.53
2018-12-02T06:30:17.395Z,7.03
2018-12-02T06:32:47.145Z,6.55
2018-12-02T06:35:16.088Z,7.70
2018-12-02T06:37:44.832Z,6.55
2018-12-02T06:40:22.760Z,5.55
2018-12-02T06:42:51.760Z,6.83
2018-12-02T06:45:20.636Z,6.28
2018-12-02T06:47:49.328Z,7.65
2018-12-02T06:50:20.853Z,7.08
2018-12-02T06:52:49.676Z,9.25
2018-12-02T06:55:29.765Z,6.30
2018-12-02T06:58:11.974Z,5.80
2018-12-02T07:00:51.110Z,6.30
2018-12-02T07:03:28.399Z,7.10
2018-12-02T07:05:57.165Z,6.20
2018-12-02T07:08:26.056Z,6.05
2018-12-02T07:10:54.777Z,6.58
2018-12-02T07:13:23.496Z,5.85
2018-12-02T07:15:52.218Z,6.75
2018-12-02T07:18:27.234Z,4.55
2018-12-02T07:20:59.071Z,6.85
2018-12-02T07:23:31.987Z,6.30
2018-12-02T07:26:04.747Z,5.83
2018-12-02T07:28:33.649Z,5.40
2018-12-02T07:31:02.997Z,7.10
2018-12-02T07:33:31.678Z,7.10
2018-12-02T07:36:00.499Z,6.67
2018-12-02T07:38:46.901Z,5.20
2018-12-02T07:41:15.982Z,6.12
2018-12-02T07:43:44.665Z,5.17
2018-12-02T07:46:14.000Z,5.15
2018-12-02T07:48:42.891Z,5.75
2018-12-02T07:51:11.770Z,5.87
2018-12-02T07:53:40.521Z,5.35
2018-12-02T07:56:09.858Z,5.37
2018-12-02T07:58:38.611Z,5.95
2018-12-02T08:01:07.554Z,5.75
2018-12-02T08:03:36.772Z,5.72
2018-12-02T08:06:05.586Z,4.85
2018-12-02T08:08:34.495Z,6.15
2018-12-02T08:11:03.254Z,4.80
2018-12-02T08:13:32.499Z,4.87
2018-12-02T08:16:01.850Z,5.05
2018-12-02T08:18:30.658Z,5.50
2018-12-02T08:20:59.670Z,5.10
2018-12-02T08:23:28.773Z,5.78
2018-12-02T08:25:57.465Z,5.28
2018-12-02T08:28:27.156Z,4.72
2018-12-02T08:30:55.974Z,4.30
2018-12-02T08:33:24.921Z,5.25
2018-12-02T08:35:53.692Z,4.62
2018-12-02T08:38:22.779Z,5.45
2018-12-02T08:40:51.765Z,4.42
2018-12-02T08:43:20.505Z,5.80
2018-12-02T08:45:49.226Z,4.53
2018-12-02T08:48:18.252Z,4.58
2018-12-02T08:50:46.947Z,4.90
2018-12-02T08:53:15.995Z,3.80
2018-12-02T08:55:43.899Z,6.28
2018-12-02T08:58:13.026Z,5.12
2018-12-02T09:00:41.915Z,5.00
2018-12-02T09:03:11.249Z,4.97
2018-12-02T09:05:40.117Z,4.58
2018-12-02T09:08:11.708Z,5.25
2018-12-02T09:10:40.868Z,4.97
2018-12-02T09:13:10.220Z,5.17
2018-12-02T09:15:38.946Z,5.08
2018-12-02T09:18:09.559Z,5.28
2018-12-02T09:20:38.467Z,4.92
2018-12-02T09:23:09.050Z,4.53
2018-12-02T09:25:37.851Z,4.80
2018-12-02T09:28:07.977Z,3.98
2018-12-02T09:30:37.628Z,4.97
2018-12-02T09:33:06.777Z,4.33
2018-12-02T09:35:35.472Z,4.42
2018-12-02T09:38:04.919Z,7.08
2018-12-02T09:40:33.690Z,6.55
2018-12-02T09:43:02.454Z,7.80
2018-12-02T09:45:31.356Z,9.95
2018-12-02T09:48:00.970Z,9.08
2018-12-02T09:50:30.012Z,6.90
2018-12-02T09:52:59.084Z,6.45
2018-12-02T09:55:36.770Z,8.50
2018-12-02T09:58:06.736Z,6.20
2018-12-02T10:00:41.995Z,10.15
2018-12-02T10:03:11.180Z,8.80
2018-12-02T10:05:40.056Z,6.15
2018-12-02T10:08:09.428Z,5.85
2018-12-02T10:10:38.438Z,6.37
2018-12-02T10:13:10.626Z,8.10
2018-12-02T10:15:41.673Z,5.58
2018-12-02T10:18:11.512Z,6.58
2018-12-02T10:20:40.479Z,6.05
2018-12-02T10:23:10.205Z,7.90
2018-12-02T10:25:39.109Z,10.55
2018-12-02T10:28:08.460Z,6.12
2018-12-02T10:30:37.842Z,7.53
2018-12-02T10:33:06.767Z,8.35
2018-12-02T10:35:35.624Z,7.40
2018-12-02T10:38:04.552Z,6.55
2018-12-02T10:40:33.755Z,6.42
2018-12-02T10:43:02.533Z,7.45
2018-12-02T10:45:31.264Z,8.10
2018-12-02T10:48:01.968Z,5.90
2018-12-02T10:50:33.044Z,7.78
2018-12-02T10:53:03.980Z,9.10
2018-12-02T10:55:43.868Z,9.15
2018-12-02T10:58:16.284Z,12.95
2018-12-02T11:00:50.322Z,13.00
2018-12-02T11:03:19.099Z,12.58
2018-12-02T11:05:47.835Z,9.73
2018-12-02T11:08:16.599Z,12.28
2018-12-02T11:10:45.904Z,13.72
2018-12-02T11:13:14.884Z,14.80
2018-12-02T11:15:43.721Z,13.55
2018-12-02T11:18:13.500Z,15.15
2018-12-02T11:20:42.441Z,16.30
2018-12-02T11:23:11.437Z,15.72
2018-12-02T11:25:40.266Z,16.02
2018-12-02T11:28:09.877Z,16.15
2018-12-02T11:30:39.386Z,15.40
2018-12-02T11:33:08.344Z,15.28
2018-12-02T11:35:37.718Z,13.80
2018-12-02T11:38:07.613Z,16.07
2018-12-02T11:40:37.017Z,18.32
2018-12-02T11:43:06.624Z,16.35
2018-12-02T11:45:35.384Z,15.88
2018-12-02T11:48:04.416Z,17.15
2018-12-02T11:50:33.563Z,17.30
2018-12-02T11:53:02.515Z,16.62
2018-12-02T11:55:31.294Z,15.35
2018-12-02T11:58:00.194Z,17.42
2018-12-02T12:00:31.347Z,17.37
2018-12-02T12:03:00.389Z,17.92
2018-12-02T12:05:29.348Z,19.48
2018-12-02T12:07:58.160Z,16.75
2018-12-02T12:10:28.053Z,21.25
2018-12-02T12:13:00.840Z,20.08
2018-12-02T12:15:30.596Z,19.45
2018-12-02T12:17:59.820Z,14.25
2018-12-02T12:20:32.774Z,15.45
2018-12-02T12:23:01.593Z,17.62
2018-12-02T12:25:30.452Z,16.77
2018-12-02T12:27:59.625Z,14.98
2018-12-02T12:30:31.513Z,14.55
2018-12-02T12:33:00.507Z,16.73
2018-12-02T12:35:29.313Z,17.20
2018-12-02T12:37:58.101Z,14.05
2018-12-02T12:40:29.281Z,16.20
2018-12-02T12:43:02.151Z,17.15
2018-12-02T12:45:30.853Z,15.98
2018-12-02T12:47:59.560Z,13.40
2018-12-02T12:50:28.376Z,16.27
2018-12-02T12:52:57.143Z,15.23
2018-12-02T12:55:25.845Z,16.35
2018-12-02T12:57:54.591Z,13.62
2018-12-02T13:00:24.088Z,14.83
2018-12-02T13:02:53.102Z,13.98
2018-12-02T13:05:23.334Z,16.57
2018-12-02T13:07:52.512Z,22.98
2018-12-02T13:10:21.450Z,21.40
2018-12-02T13:12:50.729Z,14.75
2018-12-02T13:15:21.739Z,16.55
2018-12-02T13:17:55.961Z,11.12
2018-12-02T13:20:26.135Z,12.28
2018-12-02T13:22:55.072Z,12.18
2018-12-02T13:25:23.839Z,11.28
2018-12-02T13:27:52.618Z,11.85
2018-12-02T13:30:21.584Z,10.10
2018-12-02T13:32:52.296Z,12.03
2018-12-02T13:35:21.174Z,13.53
2018-12-02T13:37:49.982Z,13.72
2018-12-02T13:40:20.077Z,14.20
2018-12-02T13:42:52.164Z,12.47
2018-12-02T13:45:23.594Z,13.68
2018-12-02T13:47:52.455Z,13.68
2018-12-02T13:50:21.836Z,10.65
2018-12-02T13:52:51.746Z,12.75
2018-12-02T13:55:22.807Z,10.85
2018-12-02T13:57:51.565Z,10.82
2018-12-02T14:00:24.469Z,13.22
2018-12-02T14:02:58.330Z,11.85
2018-12-02T14:05:27.067Z,16.85
2018-12-02T14:07:55.857Z,11.10
2018-12-02T14:10:24.947Z,14.63
2018-12-02T14:12:58.542Z,12.23
2018-12-02T14:15:35.867Z,22.42
2018-12-02T14:18:16.176Z,14.25
2018-12-02T14:20:44.940Z,17.07
2018-12-02T14:23:13.738Z,18.85
2018-12-02T14:25:42.522Z,17.45
2018-12-02T14:28:11.609Z,21.97
2018-12-02T14:30:40.348Z,19.45
2018-12-02T14:33:09.074Z,15.32
2018-12-02T14:35:38.114Z,17.90
2018-12-02T14:38:07.001Z,15.13
2018-12-02T14:40:35.804Z,14.38
2018-12-02T14:43:04.601Z,16.02
2018-12-02T14:45:33.356Z,14.38
2018-12-02T14:48:03.065Z,18.02
2018-12-02T14:50:31.940Z,13.72
2018-12-02T14:53:01.680Z,16.10
2018-12-02T14:55:30.455Z,12.45
2018-12-02T14:57:59.192Z,14.80
2018-12-02T15:00:28.005Z,12.25
2018-12-02T15:02:56.813Z,14.80
2018-12-02T15:05:25.744Z,20.05
2018-12-02T15:07:54.462Z,14.73
2018-12-02T15:10:23.348Z,15.43
2018-12-02T15:12:52.079Z,13.98
2018-12-02T15:15:20.822Z,13.40
2018-12-02T15:17:49.741Z,15.03
2018-12-02T15:20:19.838Z,14.03
2018-12-02T15:22:48.607Z,14.35
2018-12-02T15:25:17.477Z,18.90
2018-12-02T15:27:46.632Z,14.55
2018-12-02T15:30:17.433Z,16.97
2018-12-02T15:32:51.134Z,16.75
2018-12-02T15:35:21.064Z,16.82
2018-12-02T15:37:49.861Z,16.45
2018-12-02T15:40:19.100Z,19.23
2018-12-02T15:42:50.065Z,16.23
2018-12-02T15:45:19.295Z,13.10
2018-12-02T15:47:48.011Z,14.65
2018-12-02T15:50:20.863Z,15.43
2018-12-02T15:52:49.862Z,12.03
2018-12-02T15:58:07.242Z,15.63
2018-12-02T16:00:38.595Z,13.53
2018-12-02T16:03:08.568Z,14.93
2018-12-02T16:05:37.465Z,17.20
2018-12-02T16:08:07.268Z,14.38
2018-12-02T16:10:36.339Z,11.78
2018-12-02T16:13:06.523Z,13.45
2018-12-02T16:15:35.841Z,13.28
2018-12-02T16:18:05.190Z,13.53
2018-12-02T16:20:51.318Z,15.05
2018-12-02T16:23:23.648Z,15.08
2018-12-02T16:25:52.480Z,13.75
2018-12-02T16:28:21.741Z,10.93
2018-12-02T16:30:52.977Z,11.18
2018-12-02T16:33:21.862Z,14.45
2018-12-02T16:35:50.703Z,12.82
2018-12-02T16:38:19.616Z,11.75
2018-12-02T16:40:48.393Z,8.55
2018-12-02T16:43:17.229Z,9.85
2018-12-02T16:45:45.952Z,14.55
2018-12-02T16:48:14.713Z,12.85
2018-12-02T16:50:45.882Z,20.43
2018-12-02T16:53:18.202Z,14.15
2018-12-02T16:55:52.424Z,16.30
2018-12-02T16:58:28.558Z,22.60
2018-12-02T17:01:01.013Z,25.62
2018-12-02T17:03:29.889Z,16.85
2018-12-02T17:05:58.692Z,17.37
2018-12-02T17:08:27.576Z,13.25
2018-12-02T17:10:56.353Z,14.65
2018-12-02T17:13:25.080Z,16.95
2018-12-02T17:15:53.841Z,13.43
2018-12-02T17:18:22.558Z,15.20
2018-12-02T17:20:51.351Z,12.82
2018-12-02T17:23:20.213Z,13.53
2018-12-02T17:25:48.963Z,13.45
2018-12-02T17:28:17.760Z,12.03
2018-12-02T17:31:20.591Z,10.10
2018-12-02T17:33:49.621Z,12.58
2018-12-02T17:36:18.468Z,10.30
2018-12-02T17:38:48.789Z,9.80
2018-12-02T17:41:17.666Z,9.38
2018-12-02T17:43:46.543Z,8.18
2018-12-02T17:46:15.286Z,10.00
2018-12-02T17:48:44.080Z,9.55
2018-12-02T17:51:13.300Z,10.13
2018-12-02T17:53:43.193Z,9.75
2018-12-02T17:56:12.883Z,8.28
2018-12-02T17:58:41.718Z,9.70
2018-12-02T18:01:10.555Z,10.88
2018-12-02T18:03:39.339Z,8.28
2018-12-02T18:06:09.686Z,9.15
2018-12-02T18:08:38.434Z,9.48
2018-12-02T18:11:07.387Z,9.80
2018-12-02T18:13:36.564Z,13.13
2018-12-02T18:16:05.227Z,9.33
2018-12-02T18:18:34.064Z,9.30
2018-12-02T18:21:03.519Z,10.18
2018-12-02T18:23:32.370Z,8.30
2018-12-02T18:26:01.159Z,6.67
2018-12-02T18:28:29.997Z,7.17
2018-12-02T18:30:58.761Z,6.33
2018-12-02T18:33:27.573Z,7.40
2018-12-02T18:36:02.032Z,7.12
2018-12-02T18:38:33.686Z,9.25
2018-12-02T18:41:10.702Z,8.50
2018-12-02T18:43:39.559Z,8.55
2018-12-02T18:46:08.580Z,7.42
2018-12-02T18:48:37.908Z,7.92
2018-12-02T18:51:07.203Z,6.55
2018-12-02T18:53:36.019Z,7.30
2018-12-02T18:56:04.911Z,9.50
2018-12-02T18:58:33.783Z,6.95
2018-12-02T19:01:02.583Z,7.90
2018-12-02T19:03:31.369Z,7.78
2018-12-02T19:06:00.133Z,8.23
2018-12-02T19:08:28.959Z,8.43
2018-12-02T19:10:59.282Z,7.00
2018-12-02T19:13:28.065Z,7.08
2018-12-02T19:15:56.813Z,5.67
2018-12-02T19:18:25.676Z,5.35
2018-12-02T19:20:56.456Z,7.60
2018-12-02T19:23:27.742Z,7.62
2018-12-02T19:25:56.528Z,5.92
2018-12-02T19:28:25.358Z,6.58
2018-12-02T19:30:54.116Z,7.62
2018-12-02T19:33:24.895Z,7.37
2018-12-02T19:36:03.349Z,7.53
2018-12-02T19:38:32.230Z,8.55
2018-12-02T19:41:01.005Z,7.17
2018-12-02T19:43:29.842Z,7.17
2018-12-02T19:45:58.603Z,7.08
2018-12-02T19:48:27.459Z,6.10
2018-12-02T19:50:56.298Z,6.30
2018-12-02T19:53:25.116Z,8.28
2018-12-02T19:55:53.945Z,8.20
2018-12-02T19:58:22.745Z,6.65
2018-12-02T20:00:51.500Z,7.62
2018-12-02T20:03:20.284Z,8.25
2018-12-02T20:05:50.036Z,8.43
2018-12-02T20:08:18.931Z,8.13
2018-12-02T20:10:51.450Z,8.98
2018-12-02T20:13:21.124Z,6.80
2018-12-02T20:15:56.298Z,6.80
2018-12-02T20:18:25.376Z,6.92
2018-12-02T20:20:56.154Z,9.15
2018-12-02T20:23:30.429Z,8.30
2018-12-02T20:26:04.374Z,6.83
2018-12-02T20:28:34.907Z,7.05
2018-12-02T20:31:06.685Z,7.85
2018-12-02T20:33:35.530Z,6.25
2018-12-02T20:36:04.378Z,6.37
2018-12-02T20:38:33.308Z,7.37
2018-12-02T20:41:02.146Z,5.92
2018-12-02T20:43:30.944Z,8.78
2018-12-02T20:45:59.966Z,6.50
2018-12-02T20:48:28.720Z,9.03
2018-12-02T20:50:57.520Z,9.33
2018-12-02T20:53:27.171Z,6.60
2018-12-02T20:55:55.952Z,7.15
2018-12-02T20:58:24.741Z,7.33
2018-12-02T21:00:54.340Z,8.58
2018-12-02T21:03:27.810Z,6.70
2018-12-02T21:06:03.643Z,7.28
2018-12-02T21:08:32.874Z,6.60
2018-12-02T21:11:01.589Z,8.10
2018-12-02T21:13:30.473Z,6.92
2018-12-02T21:15:59.271Z,6.90
2018-12-02T21:18:27.998Z,7.90
2018-12-02T21:20:56.806Z,9.35
2018-12-02T21:23:26.613Z,9.08
2018-12-02T21:25:55.444Z,8.48
2018-12-02T21:28:25.774Z,7.97
2018-12-02T21:30:54.543Z,8.00
2018-12-02T21:33:23.344Z,8.58
2018-12-02T21:37:21.612Z,11.43
2018-12-02T21:39:50.522Z,8.30
2018-12-02T21:42:19.284Z,8.53
2018-12-02T21:44:48.158Z,8.80
2018-12-02T21:47:21.147Z,9.63
2018-12-02T21:49:45.751Z,10.35
2018-12-02T21:52:14.686Z,8.88
2018-12-02T21:54:43.521Z,11.18
2018-12-02T21:57:12.266Z,13.85
2018-12-02T21:59:41.025Z,13.55
2018-12-02T22:02:10.215Z,14.15
2018-12-02T22:04:38.995Z,13.50
2018-12-02T22:07:07.824Z,12.35
2018-12-02T22:09:36.749Z,21.95
2018-12-02T22:12:05.891Z,20.52
2018-12-02T22:14:34.827Z,21.07
2018-12-02T22:17:03.584Z,13.68
2018-12-02T22:19:32.339Z,19.25
2018-12-02T22:22:01.209Z,16.45
2018-12-02T22:24:29.976Z,18.52
2018-12-02T22:26:58.787Z,15.38
2018-12-02T22:29:27.595Z,24.27
2018-12-02T22:31:56.354Z,16.27
2018-12-02T22:34:25.123Z,17.82
2018-12-02T22:36:53.986Z,17.42
2018-12-02T22:39:22.749Z,18.85
2018-12-02T22:41:51.520Z,14.70
2018-12-02T22:44:20.263Z,15.23
2018-12-02T22:46:48.975Z,17.55
2018-12-02T22:49:17.761Z,13.60
2018-12-02T22:51:46.518Z,16.95
2018-12-02T22:54:15.176Z,16.73
2018-12-02T22:56:44.074Z,13.70
2018-12-02T22:59:13.044Z,18.65
2018-12-02T23:01:46.997Z,12.25
2018-12-02T23:04:15.773Z,13.68
2018-12-02T23:06:44.536Z,17.45
2018-12-02T23:09:13.236Z,14.05
2018-12-02T23:11:41.978Z,16.32
2018-12-02T23:14:10.724Z,17.55
2018-12-02T23:16:39.422Z,15.80
2018-12-02T23:19:08.227Z,15.25
2018-12-02T23:21:36.996Z,14.87
2018-12-02T23:24:06.142Z,14.23
2018-12-02T23:26:35.162Z,13.93
2018-12-02T23:29:08.446Z,20.35
2018-12-02T23:31:33.787Z,13.18
2018-12-02T23:34:02.576Z,15.00
2018-12-02T23:36:31.333Z,15.63
2018-12-02T23:39:00.039Z,17.32
2018-12-02T23:41:28.715Z,16.32
2018-12-02T23:43:57.488Z,13.48
2018-12-02T23:46:26.178Z,14.80
2018-12-02T23:48:54.899Z,16.67
2018-12-02T23:51:23.561Z,16.52
2018-12-02T23:53:52.295Z,19.20
2018-12-02T23:56:21.912Z,16.20
2018-12-02T23:58:50.576Z,18.15
